Time;durP1;ratioP1;P1;durP2;ratioP2;P2;SDS_P1;SDS_P2;PMS_P1;PMS_P2;Temp;Humidity;BMP_temperature;BMP_pressure;BME280_temperature;BME280_humidity;BME280_pressure;Samples;Min_cycle;Max_cycle;Signal;HPM_P1;HPM_P2
2022/01/19 00:01:04;;;;;;;;;;;;;;;-3.07;100.00;102202.22;5579318;32;35143;-85
2022/01/19 00:04:07;;;;;;;;;;;;;;;-3.21;100.00;102200.56;5578125;32;34979;-85
2022/01/19 00:07:09;;;;;;;;;;;;;;;-3.32;100.00;102215.28;5577857;32;34935;-85
2022/01/19 00:10:20;;;;;;;;;;;;;;;-3.14;100.00;102212.59;5579237;32;34832;-85
2022/01/19 00:13:23;;;;;;;;;;;;;;;-3.05;100.00;102208.25;5578156;32;34470;-85
2022/01/19 00:16:26;;;;;;;;;;;;;;;-2.60;100.00;102221.81;5578476;32;34093;-85
2022/01/19 00:19:30;;;;;;;;;;;;;;;-2.82;100.00;102211.59;5579745;32;34981;-85
2022/01/19 00:22:35;;;;;;;;;;;;;;;-2.99;100.00;102210.81;5579324;32;34409;-85
2022/01/19 00:25:40;;;;;;;;;;;;;;;-3.11;100.00;102212.59;5579294;32;34254;-85
2022/01/19 00:28:43;;;;;;;;;;;;;;;-3.08;100.00;102228.97;5577741;32;35307;-85
2022/01/19 00:31:46;;;;;;;;;;;;;;;-3.00;100.00;102238.44;5578103;32;35008;-85
2022/01/19 00:34:50;;;;;;;;;;;;;;;-2.84;100.00;102239.22;5577812;32;34185;-85
2022/01/19 00:37:53;;;;;;;;;;;;;;;-3.08;100.00;102244.50;5578428;32;35097;-85
2022/01/19 00:40:57;;;;;;;;;;;;;;;-3.31;100.00;102255.78;5577670;32;34235;-85
2022/01/19 00:44:00;;;;;;;;;;;;;;;-3.08;100.00;102252.28;5579001;32;34356;-85
2022/01/19 00:47:03;;;;;;;;;;;;;;;-3.31;100.00;102248.91;5577780;32;34245;-85
2022/01/19 00:50:06;;;;;;;;;;;;;;;-3.19;100.00;102253.19;5577047;32;35602;-85
2022/01/19 00:53:09;;;;;;;;;;;;;;;-3.17;100.00;102256.63;5577879;32;34110;-85
2022/01/19 00:56:12;;;;;;;;;;;;;;;-3.33;100.00;102236.84;5579118;32;34317;-85
2022/01/19 00:59:14;;;;;;;;;;;;;;;-3.50;100.00;102242.91;5563708;32;34829;-85
2022/01/19 01:02:17;;;;;;;;;;;;;;;-3.64;100.00;102253.28;5579129;32;34399;-85
2022/01/19 01:05:22;;;;;;;;;;;;;;;-3.64;100.00;102239.47;5581412;32;34799;-85
2022/01/19 01:08:24;;;;;;;;;;;;;;;-3.78;100.00;102227.44;5580830;32;34556;-85
2022/01/19 01:11:35;;;;;;;;;;;;;;;-3.83;100.00;102234.34;5577465;32;34630;-85
2022/01/19 01:21:07;;;;;;;;;;;;;;;-4.06;100.00;102232.63;5577714;32;35264;-85
2022/01/19 01:24:10;;;;;;;;;;;;;;;-4.16;100.00;102219.66;5576253;31;34615;-85
2022/01/19 01:27:12;;;;;;;;;;;;;;;-4.14;100.00;102213.66;5577385;32;35019;-85
2022/01/19 01:30:16;;;;;;;;;;;;;;;-4.14;100.00;102208.50;5575744;32;35187;-85
2022/01/19 01:33:21;;;;;;;;;;;;;;;-4.21;100.00;102186.94;5548423;32;887139;-85
2022/01/19 01:36:24;;;;;;;;;;;;;;;-4.22;100.00;102163.66;5578535;32;34975;-85
2022/01/19 01:39:26;;;;;;;;;;;;;;;-4.29;100.00;102156.78;5580536;32;35323;-85
2022/01/19 01:42:30;;;;;;;;;;;;;;;-4.24;100.00;102163.69;5579247;32;35902;-85
2022/01/19 01:45:35;;;;;;;;;;;;;;;-4.36;100.00;102161.97;5578394;32;35439;-85
2022/01/19 01:48:44;;;;;;;;;;;;;;;-4.40;100.00;102155.06;5579262;32;35515;-85
2022/01/19 01:55:10;;;;;;;;;;;;;;;-4.46;100.00;102162.81;5578137;32;34371;-85
2022/01/19 01:58:12;;;;;;;;;;;;;;;-4.00;100.00;102164.53;5578169;32;35038;-85
2022/01/19 02:01:24;;;;;;;;;;;;;;;-3.88;100.00;102161.91;5578566;32;33313;-85
2022/01/19 02:04:30;;;;;;;;;;;;;;;-3.93;100.00;102150.72;5578526;32;35592;-85
2022/01/19 02:07:48;;;;;;;;;;;;;;;-4.13;100.00;102152.47;5578821;32;34328;-85
2022/01/19 02:24:29;;;;;;;;;;;;;;;-4.49;100.00;102131.81;5579140;32;34566;-85
2022/01/19 02:40:28;;;;;;;;;;;;;;;-4.81;100.00;102130.06;5580080;32;34567;-85
2022/01/19 02:43:31;;;;;;;;;;;;;;;-4.88;100.00;102126.62;5580492;32;34356;-85
2022/01/19 02:46:53;;;;;;;;;;;;;;;-4.90;100.00;102122.31;5578653;32;34251;-85
2022/01/19 02:49:56;;;;;;;;;;;;;;;-4.78;100.00;102118.88;5578425;31;34250;-85
2022/01/19 02:52:59;;;;;;;;;;;;;;;-4.83;100.00;102113.69;5578579;32;34221;-85
2022/01/19 02:56:07;;;;;;;;;;;;;;;-4.86;100.00;102113.69;5578234;32;34538;-85
2022/01/19 02:59:22;;;;;;;;;;;;;;;-4.88;100.00;102118.88;5578540;32;34112;-85
2022/01/19 03:09:07;;;;;;;;;;;;;;;-5.00;100.00;102116.25;5579374;32;34479;-85
2022/01/19 03:12:11;;;;;;;;;;;;;;;-4.98;100.00;102104.22;5579256;32;34579;-85
2022/01/19 03:15:14;;;;;;;;;;;;;;;-4.93;100.00;102101.66;5578665;32;34779;-85
2022/01/19 03:18:17;;;;;;;;;;;;;;;-5.06;100.00;102080.09;5579052;32;34643;-85
2022/01/19 03:21:20;;;;;;;;;;;;;;;-5.04;100.00;102093.88;5579861;32;34533;-85
2022/01/19 03:24:24;;;;;;;;;;;;;;;-5.01;100.00;102089.56;5579120;32;34714;-85
2022/01/19 03:27:26;;;;;;;;;;;;;;;-5.02;100.00;102082.72;5566136;32;35615;-85
2022/01/19 03:30:33;;;;;;;;;;;;;;;-4.94;100.00;102074.09;5578716;32;35543;-85
2022/01/19 03:33:36;;;;;;;;;;;;;;;-5.03;100.00;102078.41;5579846;32;34527;-86
2022/01/19 03:36:39;;;;;;;;;;;;;;;-5.07;100.00;102089.56;5579569;32;34256;-85
2022/01/19 03:39:41;;;;;;;;;;;;;;;-4.95;100.00;102088.72;5578703;32;34791;-85
2022/01/19 03:42:47;;;;;;;;;;;;;;;-4.75;100.00;102090.47;5580216;32;34759;-85
2022/01/19 03:45:54;;;;;;;;;;;;;;;-4.69;100.00;102086.19;5578974;32;34628;-85
2022/01/19 03:48:58;;;;;;;;;;;;;;;-4.80;100.00;102087.91;5579017;32;33930;-85
2022/01/19 03:52:02;;;;;;;;;;;;;;;-4.89;100.00;102098.19;5579121;32;34594;-85
2022/01/19 03:55:05;;;;;;;;;;;;;;;-5.02;100.00;102098.19;5578772;32;34578;-85
2022/01/19 03:58:12;;;;;;;;;;;;;;;-4.90;100.00;102086.16;5579184;31;34170;-85
2022/01/19 04:01:15;;;;;;;;;;;;;;;-5.01;100.00;102089.56;5583038;32;34064;-85
2022/01/19 04:07:29;;;;;;;;;;;;;;;-5.20;100.00;102098.13;5579763;32;35189;-85
2022/01/19 04:10:31;;;;;;;;;;;;;;;-5.24;100.00;102096.44;5579142;32;34305;-85
2022/01/19 04:13:57;;;;;;;;;;;;;;;-5.32;100.00;102099.81;5579366;32;35101;-85
2022/01/19 04:16:59;;;;;;;;;;;;;;;-5.29;100.00;102107.59;5579914;32;34362;-85
2022/01/19 04:20:02;;;;;;;;;;;;;;;-5.28;100.00;102098.97;5583255;32;36990;-85
2022/01/19 04:23:11;;;;;;;;;;;;;;;-5.34;100.00;102098.94;5581239;32;35449;-85
2022/01/19 04:26:15;;;;;;;;;;;;;;;-5.38;100.00;102086.91;5580017;32;34961;-85
2022/01/19 04:29:18;;;;;;;;;;;;;;;-5.44;100.00;102085.19;5578827;32;34840;-85
2022/01/19 04:32:28;;;;;;;;;;;;;;;-5.47;100.00;102090.31;5579580;32;34341;-85
2022/01/19 04:35:43;;;;;;;;;;;;;;;-5.50;100.00;102092.03;5580614;32;34276;-86
2022/01/19 04:39:20;;;;;;;;;;;;;;;-5.49;100.00;102091.19;5580761;32;34997;-85
2022/01/19 05:02:15;;;;;;;;;;;;;;;-5.31;100.00;102072.31;5580002;32;34339;-86
2022/01/19 05:05:34;;;;;;;;;;;;;;;-5.31;100.00;102070.59;5579467;32;34168;-85
2022/01/19 05:15:05;;;;;;;;;;;;;;;-5.30;100.00;102048.25;5581684;32;34562;-85
2022/01/19 05:18:13;;;;;;;;;;;;;;;-5.35;100.00;102055.09;5580908;32;34374;-86
2022/01/19 05:21:16;;;;;;;;;;;;;;;-5.36;100.00;102056.81;5581628;32;35059;-85
2022/01/19 05:24:19;;;;;;;;;;;;;;;-5.31;100.00;102064.56;5583046;32;34096;-85
2022/01/19 05:27:27;;;;;;;;;;;;;;;-5.25;100.00;102058.56;5584944;32;34808;-87
2022/01/19 05:30:33;;;;;;;;;;;;;;;-5.29;100.00;102065.44;5582982;32;34564;-86
2022/01/19 05:33:37;;;;;;;;;;;;;;;-5.09;100.00;102059.47;5590827;31;36682;-86
2022/01/19 05:36:44;;;;;;;;;;;;;;;-5.22;100.00;102050.81;5603797;31;34962;-86
2022/01/19 05:39:51;;;;;;;;;;;;;;;-5.38;100.00;102058.53;5602901;31;34688;-85
2022/01/19 05:42:55;;;;;;;;;;;;;;;-5.50;100.00;102059.34;5583060;31;34893;-87
2022/01/19 05:45:57;;;;;;;;;;;;;;;-5.54;100.00;102065.38;5583588;32;35527;-85
2022/01/19 05:49:01;;;;;;;;;;;;;;;-5.55;100.00;102052.44;5584655;32;34670;-85
2022/01/19 05:52:05;;;;;;;;;;;;;;;-5.61;100.00;102049.00;5583707;32;34102;-86
2022/01/19 05:55:08;;;;;;;;;;;;;;;-5.62;100.00;102046.41;5585564;31;35028;-86
2022/01/19 05:58:12;;;;;;;;;;;;;;;-5.65;100.00;102049.84;5590938;31;35541;-86
2022/01/19 06:01:16;;;;;;;;;;;;;;;-5.61;100.00;102051.59;5587801;31;34576;-86
2022/01/19 06:04:22;;;;;;;;;;;;;;;-5.46;100.00;102061.09;5583054;31;34618;-87
2022/01/19 06:07:39;;;;;;;;;;;;;;;-5.59;100.00;102051.59;5584963;32;34493;-86
2022/01/19 06:10:46;;;;;;;;;;;;;;;-5.68;100.00;102060.13;5583034;32;35643;-85
2022/01/19 06:13:49;;;;;;;;;;;;;;;-5.62;100.00;102055.03;5582363;31;34375;-86
2022/01/19 06:16:52;;;;;;;;;;;;;;;-5.72;100.00;102063.59;5580173;32;34394;-85
2022/01/19 06:19:54;;;;;;;;;;;;;;;-5.74;100.00;102054.97;5582183;31;34492;-86
2022/01/19 06:22:57;;;;;;;;;;;;;;;-5.79;100.00;102059.22;5578996;32;34178;-86
2022/01/19 06:26:05;;;;;;;;;;;;;;;-5.69;100.00;102052.41;5580167;32;34527;-86
2022/01/19 06:29:08;;;;;;;;;;;;;;;-5.68;100.00;102062.72;5581141;32;35209;-86
2022/01/19 06:32:12;;;;;;;;;;;;;;;-5.71;100.00;102060.16;5580770;32;34905;-85
2022/01/19 06:35:16;;;;;;;;;;;;;;;-5.75;100.00;102058.41;5581120;32;34189;-86
2022/01/19 06:38:21;;;;;;;;;;;;;;;-5.77;100.00;102044.63;5581996;32;35234;-86
2022/01/19 06:41:24;;;;;;;;;;;;;;;-5.74;100.00;102054.97;5600135;31;34668;-85
2022/01/19 06:44:28;;;;;;;;;;;;;;;-5.66;100.00;102057.59;5599436;31;35461;-86
2022/01/19 06:47:33;;;;;;;;;;;;;;;-5.50;100.00;102046.44;5599125;31;34364;-86
2022/01/19 06:50:36;;;;;;;;;;;;;;;-5.44;100.00;102050.75;5579737;31;34683;-85
2022/01/19 06:53:42;;;;;;;;;;;;;;;-5.49;100.00;102044.75;5582849;32;34959;-85
2022/01/19 06:56:45;;;;;;;;;;;;;;;-5.42;100.00;102051.63;5578410;32;34650;-85
2022/01/19 06:59:51;;;;;;;;;;;;;;;-5.47;100.00;102037.88;5578066;32;33813;-85
2022/01/19 07:02:56;;;;;;;;;;;;;;;-5.51;100.00;102036.13;5579210;32;34676;-86
2022/01/19 07:06:04;;;;;;;;;;;;;;;-5.53;100.00;102033.56;5578328;32;34875;-85
2022/01/19 07:09:09;;;;;;;;;;;;;;;-5.48;100.00;102036.16;5578829;32;34341;-86
2022/01/19 07:12:13;;;;;;;;;;;;;;;-5.46;100.00;102034.44;5578503;32;34668;-85
2022/01/19 07:15:16;;;;;;;;;;;;;;;-5.42;100.00;102041.31;5579449;32;34815;-85
2022/01/19 07:18:22;;;;;;;;;;;;;;;-5.36;100.00;102036.19;5579424;32;34551;-85
2022/01/19 07:21:24;;;;;;;;;;;;;;;-5.36;100.00;102025.88;5577915;31;34759;-85
2022/01/19 07:24:28;;;;;;;;;;;;;;;-5.23;100.00;102026.75;5579661;32;34456;-85
2022/01/19 07:27:30;;;;;;;;;;;;;;;-5.12;100.00;102034.47;5577657;32;34495;-84
2022/01/19 07:30:34;;;;;;;;;;;;;;;-5.13;100.00;102017.31;5577605;32;34349;-85
2022/01/19 07:33:37;;;;;;;;;;;;;;;-5.11;100.00;102012.97;5589149;31;34886;-85
2022/01/19 07:36:40;;;;;;;;;;;;;;;-5.06;100.00;102019.00;5601993;31;34681;-85
2022/01/19 07:39:42;;;;;;;;;;;;;;;-4.97;100.00;102008.69;5601035;31;35190;-85
2022/01/19 07:42:45;;;;;;;;;;;;;;;-4.92;100.00;102005.25;5602091;31;35068;-84
2022/01/19 07:45:49;;;;;;;;;;;;;;;-4.87;100.00;101999.22;5600974;31;37085;-85
2022/01/19 07:49:00;;;;;;;;;;;;;;;-4.79;100.00;101994.06;5602148;31;35266;-84
2022/01/19 07:52:04;;;;;;;;;;;;;;;-4.72;100.00;101993.19;5599476;31;34478;-85
2022/01/19 07:55:09;;;;;;;;;;;;;;;-4.65;100.00;101994.06;5600386;31;34689;-84
2022/01/19 07:58:12;;;;;;;;;;;;;;;-4.54;100.00;101997.47;5599436;31;35113;-85
2022/01/19 08:01:22;;;;;;;;;;;;;;;-4.40;100.00;102000.03;5599631;31;35188;-84
2022/01/19 08:04:27;;;;;;;;;;;;;;;-4.32;100.00;101996.56;5598389;31;34351;-85
2022/01/19 08:07:30;;;;;;;;;;;;;;;-4.27;100.00;101992.25;5598444;31;34188;-85
2022/01/19 08:10:34;;;;;;;;;;;;;;;-4.15;100.00;101999.97;5599163;31;35032;-85
2022/01/19 08:13:37;;;;;;;;;;;;;;;-4.09;100.00;101999.09;5598300;31;34594;-85
2022/01/19 08:16:40;;;;;;;;;;;;;;;-3.94;100.00;101987.81;5596118;31;35025;-85
2022/01/19 08:19:43;;;;;;;;;;;;;;;-3.90;100.00;101980.03;5598118;31;34277;-85
2022/01/19 08:22:50;;;;;;;;;;;;;;;-3.84;100.00;101978.31;5598233;31;33894;-86
2022/01/19 08:25:52;;;;;;;;;;;;;;;-3.75;100.00;101979.09;5595659;31;35580;-86
2022/01/19 08:28:55;;;;;;;;;;;;;;;-3.62;100.00;101979.91;5597421;31;34491;-85
2022/01/19 08:32:04;;;;;;;;;;;;;;;-3.44;100.00;101978.94;5597352;31;35292;-86
2022/01/19 08:35:29;;;;;;;;;;;;;;;-3.34;100.00;101982.28;5596714;31;35589;-85
2022/01/19 08:38:33;;;;;;;;;;;;;;;-3.30;100.00;101993.47;5597204;31;36087;-86
2022/01/19 08:41:47;;;;;;;;;;;;;;;-3.13;100.00;101994.25;5596757;31;35583;-85
2022/01/19 08:44:50;;;;;;;;;;;;;;;-3.14;100.00;101986.47;5595176;31;34912;-86
2022/01/19 08:47:54;;;;;;;;;;;;;;;-3.07;100.00;101985.56;5595774;31;34420;-86
2022/01/19 08:50:56;;;;;;;;;;;;;;;-2.95;100.00;101980.28;5597183;31;34620;-85
2022/01/19 08:54:02;;;;;;;;;;;;;;;-2.85;100.00;101977.59;5595641;31;34232;-85
2022/01/19 08:57:06;;;;;;;;;;;;;;;-2.97;100.00;101976.84;5595067;31;34974;-85
2022/01/19 09:00:12;;;;;;;;;;;;;;;-2.81;100.00;101979.28;5596373;31;36122;-86
2022/01/19 09:03:16;;;;;;;;;;;;;;;-2.76;100.00;101961.12;5596039;31;34328;-85
2022/01/19 09:06:21;;;;;;;;;;;;;;;-2.60;100.00;101962.69;5578634;31;34701;-86
2022/01/19 09:09:23;;;;;;;;;;;;;;;-2.62;100.00;101959.25;5580018;32;34889;-85
2022/01/19 09:12:26;;;;;;;;;;;;;;;-2.60;100.00;101967.03;5577322;32;35234;-86
2022/01/19 09:15:29;;;;;;;;;;;;;;;-2.50;100.00;101971.22;5577300;32;34461;-85
2022/01/19 09:18:32;;;;;;;;;;;;;;;-2.43;100.00;101959.06;5577845;32;34795;-85
2022/01/19 09:21:38;;;;;;;;;;;;;;;-2.34;100.00;101961.53;5578224;32;35589;-86
2022/01/19 09:24:42;;;;;;;;;;;;;;;-2.27;100.00;101960.59;5577817;32;35859;-85
2022/01/19 09:27:44;;;;;;;;;;;;;;;-2.06;100.00;101963.78;5578032;32;34347;-85
2022/01/19 09:30:50;;;;;;;;;;;;;;;-2.09;100.00;101959.50;5578001;32;35703;-85
2022/01/19 09:34:02;;;;;;;;;;;;;;;-2.03;100.00;101953.41;5577144;32;33995;-86
2022/01/19 09:37:05;;;;;;;;;;;;;;;-1.90;100.00;101952.34;5576991;32;34501;-85
2022/01/19 09:40:08;;;;;;;;;;;;;;;-1.93;100.00;101959.34;5579087;32;34932;-85
2022/01/19 09:43:14;;;;;;;;;;;;;;;-1.91;100.00;101953.22;5576807;32;34241;-86
2022/01/19 09:46:19;;;;;;;;;;;;;;;-1.84;100.00;101937.56;5577371;32;34564;-86
2022/01/19 09:49:25;;;;;;;;;;;;;;;-1.72;100.00;101932.22;5578392;32;34753;-86
2022/01/19 09:52:29;;;;;;;;;;;;;;;-1.59;100.00;101927.72;5578020;32;34627;-86
2022/01/19 09:55:32;;;;;;;;;;;;;;;-1.52;100.00;101924.13;5575828;32;34308;-85
2022/01/19 09:58:36;;;;;;;;;;;;;;;-1.51;100.00;101917.19;5578727;32;34304;-86
2022/01/19 10:01:56;;;;;;;;;;;;;;;-1.37;100.00;101912.66;5578876;32;34503;-85
2022/01/19 10:05:05;;;;;;;;;;;;;;;-1.34;100.00;101897.03;5578584;32;34288;-86
2022/01/19 10:08:09;;;;;;;;;;;;;;;-1.28;100.00;101891.72;5580238;32;34679;-86
2022/01/19 10:11:19;;;;;;;;;;;;;;;-1.13;100.00;101885.44;5578985;31;35110;-86
2022/01/19 10:18:06;;;;;;;;;;;;;;;-1.05;99.71;101859.28;5578745;32;35161;-86
2022/01/19 10:21:13;;;;;;;;;;;;;;;-0.59;97.71;101865.38;5579253;32;35344;-85
2022/01/19 10:24:16;;;;;;;;;;;;;;;-0.53;97.99;101853.97;5576633;32;34745;-85
2022/01/19 10:27:23;;;;;;;;;;;;;;;-0.59;98.10;101841.97;5576155;32;36705;-85
2022/01/19 10:30:43;;;;;;;;;;;;;;;-0.51;94.42;101827.06;5578363;32;34352;-86
2022/01/19 10:34:05;;;;;;;;;;;;;;;-0.27;92.84;101829.16;5583268;31;34649;-85
2022/01/19 10:37:08;;;;;;;;;;;;;;;-0.12;93.49;101823.63;5582808;31;35299;-85
2022/01/19 10:40:18;;;;;;;;;;;;;;;0.08;92.44;101814.47;5583225;31;34578;-85
2022/01/19 10:43:24;;;;;;;;;;;;;;;-0.01;91.45;101811.22;5592128;31;34057;-85
2022/01/19 10:46:28;;;;;;;;;;;;;;;0.07;91.73;101802.34;5592621;31;34153;-85
2022/01/19 10:49:47;;;;;;;;;;;;;;;0.06;92.86;101796.31;5583087;31;34650;-85
2022/01/19 10:52:49;;;;;;;;;;;;;;;0.19;92.98;101796.03;5587795;31;34089;-85
2022/01/19 10:55:52;;;;;;;;;;;;;;;0.30;92.54;101779.22;5576660;31;34447;-85
2022/01/19 10:58:59;;;;;;;;;;;;;;;0.54;90.74;101771.69;5578259;31;34564;-85
2022/01/19 11:02:03;;;;;;;;;;;;;;;0.57;90.44;101771.59;5596785;31;34313;-85
2022/01/19 11:05:06;;;;;;;;;;;;;;;0.71;88.36;101762.56;5596252;31;34496;-85
2022/01/19 11:08:09;;;;;;;;;;;;;;;0.81;89.09;101757.94;5596807;31;34578;-85
2022/01/19 11:11:11;;;;;;;;;;;;;;;0.87;87.07;101755.19;5596387;31;34395;-85
2022/01/19 11:14:16;;;;;;;;;;;;;;;0.94;88.27;101742.84;5597503;31;34676;-85
2022/01/19 11:17:18;;;;;;;;;;;;;;;1.00;87.63;101734.84;5596914;31;35591;-84
2022/01/19 11:20:24;;;;;;;;;;;;;;;1.02;86.89;101730.44;5595779;31;34411;-84
2022/01/19 11:23:35;;;;;;;;;;;;;;;1.02;86.71;101717.41;5586999;31;34436;-85
2022/01/19 11:26:38;;;;;;;;;;;;;;;1.07;87.10;101718.09;5583323;31;34386;-86
2022/01/19 11:29:41;;;;;;;;;;;;;;;1.19;88.28;101717.75;5577741;32;34935;-85
2022/01/19 11:33:06;;;;;;;;;;;;;;;1.27;87.95;101708.88;5576674;32;34523;-85
2022/01/19 11:36:20;;;;;;;;;;;;;;;1.32;86.17;101700.00;5576099;32;34199;-85
2022/01/19 11:39:30;;;;;;;;;;;;;;;1.42;86.97;101686.66;5576062;32;34937;-85
2022/01/19 11:42:32;;;;;;;;;;;;;;;1.55;86.95;101688.00;5576595;32;34343;-84
2022/01/19 11:45:38;;;;;;;;;;;;;;;1.44;86.33;101675.28;5577356;32;34643;-86
2022/01/19 11:48:43;;;;;;;;;;;;;;;1.53;86.18;101674.97;5576157;31;34019;-84
2022/01/19 11:51:55;;;;;;;;;;;;;;;1.64;86.94;101666.81;5578315;32;35168;-84
2022/01/19 11:55:20;;;;;;;;;;;;;;;1.64;86.59;101665.97;5577609;32;34801;-83
2022/01/19 11:58:24;;;;;;;;;;;;;;;1.72;86.74;101663.09;5571925;32;34505;-84
2022/01/19 12:01:26;;;;;;;;;;;;;;;1.73;86.90;101650.03;5578120;32;33952;-86
2022/01/19 12:04:36;;;;;;;;;;;;;;;1.68;86.77;101641.47;5576878;32;34897;-84
2022/01/19 12:07:45;;;;;;;;;;;;;;;1.80;86.83;101637.63;5575974;32;34818;-84
2022/01/19 12:10:51;;;;;;;;;;;;;;;1.88;85.87;101632.12;5577279;32;34191;-84
2022/01/19 12:14:07;;;;;;;;;;;;;;;1.94;85.88;101627.53;5576566;32;33981;-84
2022/01/19 12:17:25;;;;;;;;;;;;;;;2.02;85.46;101624.69;5576466;32;33599;-85
2022/01/19 12:20:46;;;;;;;;;;;;;;;2.01;85.59;101633.41;5575313;32;35139;-84
2022/01/19 12:23:49;;;;;;;;;;;;;;;1.99;85.35;101622.16;5576575;32;34405;-85
2022/01/19 12:26:55;;;;;;;;;;;;;;;2.02;84.56;101609.00;5575785;32;35210;-85
2022/01/19 12:29:58;;;;;;;;;;;;;;;2.05;84.52;101614.13;5576665;32;34639;-85
2022/01/19 12:33:03;;;;;;;;;;;;;;;2.16;84.33;101616.34;5576202;32;34411;-85
2022/01/19 12:36:26;;;;;;;;;;;;;;;2.28;84.02;101594.19;5575103;32;34986;-85
2022/01/19 12:39:29;;;;;;;;;;;;;;;2.31;82.46;101586.22;5576832;32;34278;-85
2022/01/19 12:42:43;;;;;;;;;;;;;;;2.44;81.07;101579.63;5576997;32;34560;-85
2022/01/19 12:45:49;;;;;;;;;;;;;;;2.54;79.97;101579.28;5576552;32;35108;-86
2022/01/19 12:48:57;;;;;;;;;;;;;;;2.51;79.80;101574.19;5577519;32;34532;-85
2022/01/19 12:52:00;;;;;;;;;;;;;;;2.58;79.21;101570.44;5576703;32;34183;-85
2022/01/19 12:55:11;;;;;;;;;;;;;;;2.70;78.94;101564.75;5575862;32;34545;-84
2022/01/19 12:58:20;;;;;;;;;;;;;;;2.70;78.42;101564.75;5576630;32;34759;-85
2022/01/19 13:01:22;;;;;;;;;;;;;;;2.78;78.08;101552.22;5575896;32;34876;-85
2022/01/19 13:04:27;;;;;;;;;;;;;;;2.71;77.91;101561.22;5574766;32;34507;-84
2022/01/19 13:07:37;;;;;;;;;;;;;;;2.69;78.75;101552.59;5574320;32;34211;-84
2022/01/19 13:10:46;;;;;;;;;;;;;;;2.62;79.28;101549.34;5574667;32;34588;-84
2022/01/19 13:13:53;;;;;;;;;;;;;;;2.68;78.53;101532.59;5574385;32;34885;-84
2022/01/19 13:17:02;;;;;;;;;;;;;;;2.78;78.41;101526.09;5574733;32;34956;-84
2022/01/19 13:20:08;;;;;;;;;;;;;;;2.65;79.47;101519.62;5576006;32;34737;-85
2022/01/19 13:23:16;;;;;;;;;;;;;;;2.60;79.97;101526.81;5575638;32;35464;-85
2022/01/19 13:26:18;;;;;;;;;;;;;;;2.59;80.35;101518.09;5575065;32;34542;-85
2022/01/19 13:29:25;;;;;;;;;;;;;;;2.56;80.49;101525.22;5575302;32;34712;-85
2022/01/19 13:32:31;;;;;;;;;;;;;;;2.50;80.50;101521.06;5577630;31;34676;-84
2022/01/19 13:35:34;;;;;;;;;;;;;;;2.51;81.24;101516.72;5597079;31;34493;-84
2022/01/19 13:38:38;;;;;;;;;;;;;;;2.42;80.80;101513.53;5596954;31;34662;-84
2022/01/19 13:41:42;;;;;;;;;;;;;;;2.38;80.96;101504.13;5597223;31;34808;-84
2022/01/19 13:44:49;;;;;;;;;;;;;;;2.40;80.57;101502.31;5597688;31;34368;-85
2022/01/19 13:51:18;;;;;;;;;;;;;;;2.34;82.33;101505.16;5597600;31;34290;-84
2022/01/19 13:54:23;;;;;;;;;;;;;;;2.36;82.66;101490.28;5596903;31;34616;-85
2022/01/19 13:57:26;;;;;;;;;;;;;;;2.45;82.38;101497.75;5594834;31;35067;-84
2022/01/19 14:00:29;;;;;;;;;;;;;;;2.39;82.65;101481.47;5586643;31;34687;-84
2022/01/19 14:03:55;;;;;;;;;;;;;;;2.43;82.17;101481.28;5577901;32;34546;-84
2022/01/19 14:07:04;;;;;;;;;;;;;;;2.43;82.60;101486.50;5580411;32;34447;-84
2022/01/19 14:10:09;;;;;;;;;;;;;;;2.39;82.46;101477.09;5579915;32;34459;-84
2022/01/19 14:13:28;;;;;;;;;;;;;;;2.25;82.94;101487.22;5580280;32;34607;-85
2022/01/19 14:16:38;;;;;;;;;;;;;;;2.26;83.19;101470.66;5579681;32;34286;-85
2022/01/19 14:19:45;;;;;;;;;;;;;;;2.09;83.43;101474.72;5578926;32;34080;-84
2022/01/19 14:23:08;;;;;;;;;;;;;;;2.08;83.82;101472.19;5578376;32;35081;-84
2022/01/19 14:26:11;;;;;;;;;;;;;;;2.04;83.98;101466.25;5578827;31;34712;-84
2022/01/19 14:29:17;;;;;;;;;;;;;;;1.90;85.13;101453.72;5581639;31;34236;-84
2022/01/19 14:32:20;;;;;;;;;;;;;;;1.77;85.36;101449.84;5584907;31;35508;-84
2022/01/19 14:35:31;;;;;;;;;;;;;;;1.73;85.63;101448.25;5584744;31;34079;-85
2022/01/19 14:38:38;;;;;;;;;;;;;;;1.68;85.25;101443.19;5576792;32;34500;-84
2022/01/19 14:41:43;;;;;;;;;;;;;;;1.64;85.67;101431.16;5577501;32;35239;-86
2022/01/19 14:44:59;;;;;;;;;;;;;;;1.62;86.46;101440.81;5576575;32;34788;-84
2022/01/19 14:48:12;;;;;;;;;;;;;;;1.58;87.73;101426.19;5585707;31;34882;-84
2022/01/19 14:51:23;;;;;;;;;;;;;;;1.44;88.10;101418.84;5584918;31;34380;-84
2022/01/19 14:54:26;;;;;;;;;;;;;;;1.40;88.99;101415.53;5584559;31;34400;-84
2022/01/19 14:57:29;;;;;;;;;;;;;;;1.28;90.21;101418.56;5586455;31;34141;-84
2022/01/19 15:00:32;;;;;;;;;;;;;;;1.20;91.10;101411.84;5582651;31;35332;-84
2022/01/19 15:03:40;;;;;;;;;;;;;;;1.14;92.23;101414.66;5576553;32;34787;-84
2022/01/19 15:06:44;;;;;;;;;;;;;;;1.00;92.46;101406.47;5576920;32;34152;-85
2022/01/19 15:09:47;;;;;;;;;;;;;;;0.98;93.78;101400.44;5575735;32;34236;-84
2022/01/19 15:12:54;;;;;;;;;;;;;;;0.88;94.30;101400.75;5579873;31;35288;-85
2022/01/19 15:15:56;;;;;;;;;;;;;;;0.82;95.02;101400.13;5579256;31;34450;-84
2022/01/19 15:18:59;;;;;;;;;;;;;;;0.69;95.83;101399.69;5579753;31;35349;-83
2022/01/19 15:22:02;;;;;;;;;;;;;;;0.82;95.11;101395.78;5579155;31;34590;-83
2022/01/19 15:25:05;;;;;;;;;;;;;;;0.66;95.88;101389.34;5592184;31;34571;-83
2022/01/19 15:28:08;;;;;;;;;;;;;;;0.67;96.19;101380.62;5596242;31;34390;-84
2022/01/19 15:31:11;;;;;;;;;;;;;;;0.50;96.56;101376.84;5590377;31;34661;-83
2022/01/19 15:34:17;;;;;;;;;;;;;;;0.41;98.01;101375.38;5593495;31;34643;-83
2022/01/19 15:37:23;;;;;;;;;;;;;;;0.50;97.86;101379.47;5596264;31;34259;-83
2022/01/19 15:40:26;;;;;;;;;;;;;;;0.59;96.66;101373.06;5586531;31;35052;-83
2022/01/19 15:43:37;;;;;;;;;;;;;;;0.70;94.47;101370.13;5580564;31;34445;-83
2022/01/19 15:46:40;;;;;;;;;;;;;;;0.57;94.87;101367.06;5586507;31;35641;-83
2022/01/19 15:49:43;;;;;;;;;;;;;;;0.43;96.01;101357.09;5590198;31;34968;-84
2022/01/19 15:52:46;;;;;;;;;;;;;;;0.37;96.17;101354.72;5585826;31;34655;-84
2022/01/19 15:55:50;;;;;;;;;;;;;;;0.33;96.63;101350.50;5577557;31;35315;-83
2022/01/19 15:58:52;;;;;;;;;;;;;;;0.21;96.43;101357.78;5576608;32;35193;-83
2022/01/19 16:01:55;;;;;;;;;;;;;;;0.35;95.29;101348.69;5576433;32;34590;-83
2022/01/19 16:05:00;;;;;;;;;;;;;;;0.16;96.42;101338.87;5575325;31;34408;-83
2022/01/19 16:08:03;;;;;;;;;;;;;;;-0.01;96.76;101348.06;5576364;31;34747;-83
2022/01/19 16:11:06;;;;;;;;;;;;;;;-0.09;97.82;101342.25;5576516;32;34527;-83
2022/01/19 16:14:09;;;;;;;;;;;;;;;-0.16;97.91;101343.31;5575923;32;34196;-83
2022/01/19 16:17:12;;;;;;;;;;;;;;;-0.30;98.89;101345.50;5575612;31;34040;-83
2022/01/19 16:20:15;;;;;;;;;;;;;;;-0.24;99.15;101340.09;5575589;32;34548;-83
2022/01/19 16:26:39;;;;;;;;;;;;;;;-0.29;99.43;101327.25;5575791;32;34235;-83
2022/01/19 16:29:42;;;;;;;;;;;;;;;-0.45;99.95;101326.84;5575432;32;35472;-83
2022/01/19 16:32:45;;;;;;;;;;;;;;;-0.56;100.00;101314.16;5575303;32;34092;-84
2022/01/19 16:35:48;;;;;;;;;;;;;;;-0.66;100.00;101313.59;5575703;32;34970;-83
2022/01/19 16:38:53;;;;;;;;;;;;;;;-0.66;100.00;101313.59;5576833;32;34679;-83
2022/01/19 16:42:00;;;;;;;;;;;;;;;-0.62;100.00;101309.16;5575527;32;35034;-83
2022/01/19 16:45:08;;;;;;;;;;;;;;;-0.58;100.00;101308.16;5575127;32;34489;-83
2022/01/19 16:48:18;;;;;;;;;;;;;;;-0.35;100.00;101304.87;5576174;31;34141;-83
2022/01/19 16:51:22;;;;;;;;;;;;;;;-0.51;100.00;101299.28;5575684;31;34372;-84
2022/01/19 16:54:28;;;;;;;;;;;;;;;-0.58;100.00;101299.50;5575042;31;34356;-83
2022/01/19 16:57:31;;;;;;;;;;;;;;;-0.55;100.00;101300.25;5575816;32;34636;-83
2022/01/19 17:00:37;;;;;;;;;;;;;;;-0.53;100.00;101292.44;5575173;32;34601;-83
2022/01/19 17:03:40;;;;;;;;;;;;;;;-0.49;100.00;101291.44;5577436;32;34455;-84
2022/01/19 17:06:44;;;;;;;;;;;;;;;-0.58;100.00;101297.78;5576497;32;34488;-83
2022/01/19 17:09:47;;;;;;;;;;;;;;;-0.77;100.00;101294.84;5577462;32;34367;-83
2022/01/19 17:12:53;;;;;;;;;;;;;;;-0.87;100.00;101272.62;5583740;31;34309;-83